Aviation Digital Data Service (ADDS)

Output produced by METARs form (1154 UTC 24 May 2022)
found at http://www.aviationweather.gov/metar/data/
 
VTCT 241100Z 17007KT 9999 BKN030 29/22 Q1005 NOSIG
VTCT 241000Z 17009KT 9999 BKN030 31/23 Q1004 NOSIG
VTCT 240900Z 18006KT 140V210 9999 BKN035 32/23 Q1004 NOSIG
VTCT 240800Z 17008KT 130V200 9999 BKN035 32/24 Q1005 NOSIG
VTCT 240700Z 14006KT 090V170 9999 BKN035 32/23 Q1006 NOSIG
VTCT 240600Z 19005KT 150V230 9999 BKN035 31/23 Q1007 NOSIG
VTCT 240500Z 16005KT 100V240 9999 BKN030 31/24 Q1008 NOSIG
VTCT 240400Z 20006KT 9999 BKN025 30/23 Q1008 NOSIG
VTCT 240300Z 16005KT 110V230 9999 SCT022 29/24 Q1008 NOSIG
VTCT 240200Z 15003KT 030V200 9999 FEW020 28/23 Q1008 NOSIG
VTCT 240100Z VRB01KT 9999 FEW020 26/24 Q1007 NOSIG
VTCT 240000Z 29003KT CAVOK 24/24 Q1007 NOSIG
VTCT 232300Z 25003KT 9000 NSC 23/23 Q1006 NOSIG
VTCT 232200Z 00000KT CAVOK 24/24 Q1005 NOSIG
VTCT 232100Z 28003KT CAVOK 24/24 Q1005 NOSIG
VTCT 232000Z 22002KT CAVOK 24/24 Q1005 NOSIG
VTCT 231900Z 00000KT CAVOK 25/25 Q1005 NOSIG
VTCT 231800Z 26003KT CAVOK 25/25 Q1005 NOSIG
VTCT 231700Z 23004KT CAVOK 25/24 Q1005 NOSIG
VTCT 231600Z 18005KT CAVOK 26/23 Q1005 NOSIG
VTCT 231500Z 23002KT CAVOK 26/23 Q1004 NOSIG
VTCT 231400Z 21008KT 9999 FEW040 28/23 Q1004 NOSIG
VTCT 231300Z 21006KT 9999 FEW025 SCT060 29/23 Q1003 NOSIG
VTCT 231200Z 17005KT 9999 SCT045 31/25 Q1001 NOSIG
VTCT 231100Z 16006KT 130V190 9999 FEW040 32/25 Q1000 NOSIG
TAF VTCT 241100Z 2412/2518 22005KT 9999 SCT030 
     TEMPO 2412/2416 23015G25KT 4000 TSRA FEW020CB BKN030 
     BECMG 2420/2421 28005KT 
     BECMG 2500/2502 17005KT 
     TEMPO 2512/2516 26015G25KT 4000 TSRA FEW020CB BKN030